»·PEaware :: SKW3186 KPHX-KSGU

SKW3186 :: KPHX-KSGU

FLIGHT INFORMATION

Flight Status: Arrived
Operator:
SkyWest Airlines
More flights by this operator :: More flights under this callsign
Pilot: Anonymous 11975 (11975)
Aircraft: CANADAIR CL-600 CRJ-700
(CRJ7)
More flights by this aircraft type
Origin: KPHX Phoenix Sky Harbor Intl
United States
Destination: KSGU St George Mun
United States
More flights between these airports :: More routes between these airports
Route: QUAKY1 GCN ETYIR PIETZ
File this flight plan on PilotEdge
Remarks:
Altitude:
(Current/Filed)
28,000ft
Speed:
(Current/Filed)
439kts
Departed: 31-Aug-22 12:39 PM
Arrived: 31-Aug-22 01:37 PM
Distance/Time
Traveled:
228nm/0:58
Distance/Time
To Go:
Arrived

Flight Plot

Page will automatically refresh every two minutes.

Flight plan parsing failed; only flown route is shown


Map Options




Map Legend


Flown Route
Filed Route
Departure Airport
Arrival Airport
Navaid (VOR, NDB)
Fix

Horizontal Profiles

Position Reports

Time Latitude Longitude Heading Altitude Ground
Speed
31-Aug-22 11:58 33.436533 -111.993217 180 1139ft 0kts
31-Aug-22 11:59 33.436533 -111.993217 180 1139ft 0kts
31-Aug-22 12:00 33.436533 -111.993217 180 1139ft 0kts
31-Aug-22 12:01 33.436533 -111.993217 180 1139ft 0kts
31-Aug-22 12:02 33.436533 -111.993217 180 1139ft 0kts
31-Aug-22 12:03 33.436533 -111.993217 180 1139ft 0kts
31-Aug-22 12:04 33.436533 -111.993217 180 1139ft 0kts
31-Aug-22 12:05 33.436533 -111.993217 180 1139ft 0kts
31-Aug-22 12:06 33.436533 -111.993217 180 1139ft 0kts
31-Aug-22 12:07 33.436533 -111.993217 180 1139ft 0kts
31-Aug-22 12:08 33.436533 -111.993217 180 1139ft 0kts
31-Aug-22 12:09 33.436533 -111.993217 180 1139ft 0kts
31-Aug-22 12:10 33.436533 -111.993217 180 1139ft 0kts
31-Aug-22 12:11 33.436533 -111.993217 180 1139ft 0kts
31-Aug-22 12:12 33.436533 -111.993217 180 1139ft 0kts
31-Aug-22 12:13 33.436533 -111.993217 180 1139ft 0kts
31-Aug-22 12:14 33.436533 -111.993217 180 1139ft 0kts
31-Aug-22 12:15 33.436533 -111.993217 180 1139ft 0kts
31-Aug-22 12:16 33.436533 -111.993217 180 1139ft 0kts
31-Aug-22 12:17 33.436533 -111.993217 180 1139ft 0kts
31-Aug-22 12:18 33.436533 -111.993217 180 1139ft 0kts
31-Aug-22 12:19 33.436533 -111.993217 180 1139ft 0kts
31-Aug-22 12:20 33.436533 -111.993217 180 1139ft 0kts
31-Aug-22 12:21 33.436533 -111.993217 180 1139ft 0kts
31-Aug-22 12:22 33.436533 -111.993217 180 1139ft 0kts
31-Aug-22 12:23 33.436533 -111.993217 180 1167ft 0kts
31-Aug-22 12:24 33.436533 -111.993217 180 1167ft 0kts
31-Aug-22 12:25 33.436533 -111.993217 180 1167ft 0kts
31-Aug-22 12:26 33.437160 -111.993115 179 1140ft 2kts
31-Aug-22 12:27 33.437190 -111.993115 180 1140ft 0kts
31-Aug-22 12:28 33.437190 -111.993115 180 1140ft 0kts
31-Aug-22 12:29 33.436706 -111.992291 174 1141ft 6kts
31-Aug-22 12:30 33.434743 -111.992293 180 1143ft 7kts
31-Aug-22 12:31 33.432824 -111.993911 269 1137ft 13kts
31-Aug-22 12:32 33.432832 -111.998541 270 1136ft 12kts
31-Aug-22 12:33 33.432829 -112.001826 270 1139ft 7kts
31-Aug-22 12:34 33.432872 -112.005117 271 1138ft 16kts
31-Aug-22 12:35 33.432882 -112.012678 270 1115ft 26kts
31-Aug-22 12:36 33.432889 -112.021165 269 1120ft 23kts
31-Aug-22 12:37 33.431836 -112.026984 180 1116ft 13kts
31-Aug-22 12:38 33.431043 -112.010594 90 1153ft 157kts
31-Aug-22 12:39 33.432842 -111.950016 86 3612ft 209kts
31-Aug-22 12:40 33.438402 -111.870972 66 6110ft 271kts
31-Aug-22 12:41 33.482128 -111.845927 5 8343ft 277kts
31-Aug-22 12:42 33.560238 -111.841552 4 9018ft 281kts
31-Aug-22 12:43 33.639581 -111.837412 5 9093ft 290kts
31-Aug-22 12:44 33.720329 -111.850719 350 11033ft 320kts
31-Aug-22 12:45 33.812178 -111.873394 353 13999ft 348kts
31-Aug-22 12:46 33.911110 -111.894017 352 17058ft 371kts
31-Aug-22 12:47 34.015443 -111.918401 351 19884ft 390kts
31-Aug-22 12:48 34.125782 -111.941289 356 20915ft 409kts
31-Aug-22 12:49 34.239973 -111.951625 357 20965ft 409kts
31-Aug-22 12:50 34.353071 -111.964724 356 21314ft 405kts
31-Aug-22 12:51 34.466050 -111.976747 356 24074ft 414kts
31-Aug-22 12:52 34.582012 -111.989820 356 26205ft 423kts
31-Aug-22 12:53 34.700382 -112.002958 355 27940ft 440kts
31-Aug-22 12:54 34.823799 -112.016777 355 28135ft 448kts
31-Aug-22 12:55 34.948750 -112.031017 355 28109ft 453kts
31-Aug-22 12:56 35.074646 -112.045316 355 28058ft 455kts
31-Aug-22 12:57 35.200918 -112.059663 355 28301ft 453kts
31-Aug-22 12:58 35.325064 -112.073746 355 28380ft 446kts
31-Aug-22 12:59 35.448495 -112.086058 356 28310ft 444kts
31-Aug-22 13:00 35.571501 -112.098694 355 28209ft 443kts
31-Aug-22 13:01 35.694183 -112.114060 355 28051ft 443kts
31-Aug-22 13:02 35.817666 -112.128828 355 28048ft 449kts
31-Aug-22 13:03 35.942511 -112.143968 354 28396ft 447kts
31-Aug-22 13:04 36.064035 -112.175343 345 28364ft 453kts
31-Aug-22 13:05 36.187544 -112.211898 347 28225ft 460kts
31-Aug-22 13:06 36.312655 -112.247942 347 28049ft 462kts
31-Aug-22 13:07 36.438096 -112.284524 347 28049ft 464kts
31-Aug-22 13:08 36.563957 -112.321500 346 28052ft 465kts
31-Aug-22 13:09 36.689966 -112.358529 346 28058ft 466kts
31-Aug-22 13:10 36.816612 -112.395973 346 28051ft 468kts
31-Aug-22 13:11 36.942812 -112.432969 346 27929ft 464kts
31-Aug-22 13:12 37.069113 -112.470006 346 26079ft 470kts
31-Aug-22 13:13 37.195917 -112.507768 346 24471ft 464kts
31-Aug-22 13:14 37.320566 -112.544969 346 22545ft 455kts
31-Aug-22 13:15 37.441249 -112.581705 346 20811ft 439kts
31-Aug-22 13:16 37.521622 -112.681907 280 19163ft 431kts
31-Aug-22 13:17 37.478857 -112.816698 230 17484ft 429kts
31-Aug-22 13:18 37.400748 -112.929111 230 15666ft 415kts
31-Aug-22 13:19 37.330960 -113.042544 232 13947ft 406kts
31-Aug-22 13:20 37.262523 -113.151317 233 12374ft 391kts
31-Aug-22 13:21 37.247141 -113.272495 270 11161ft 323kts
31-Aug-22 13:22 37.237080 -113.375178 247 9554ft 273kts
31-Aug-22 13:23 37.188881 -113.430065 203 7782ft 219kts
31-Aug-22 13:24 37.136938 -113.457048 204 6481ft 184kts
31-Aug-22 13:25 37.093826 -113.480103 204 4954ft 155kts
31-Aug-22 13:26 37.055869 -113.500086 202 3312ft 143kts
31-Aug-22 13:27 37.008816 -113.525397 203 5035ft 224kts
31-Aug-22 13:28 36.996714 -113.591764 292 5542ft 226kts
31-Aug-22 13:29 37.042380 -113.629430 2 5363ft 208kts
31-Aug-22 13:30 37.094313 -113.602792 27 5416ft 202kts
31-Aug-22 13:31 37.144043 -113.569607 54 5197ft 208kts
31-Aug-22 13:32 37.143308 -113.506889 118 4676ft 167kts
31-Aug-22 13:33 37.106895 -113.482503 176 4028ft 151kts
31-Aug-22 13:34 37.066709 -113.494352 202 3406ft 148kts
31-Aug-22 13:35 37.033519 -113.511854 202 2859ft 57kts
31-Aug-22 13:36 37.031113 -113.511022 113 2850ft 9kts
31-Aug-22 13:37 37.030866 -113.510231 110 2852ft 0kts
31-Aug-22 13:38 37.030866 -113.510231 110 2852ft 0kts

Navigation Log

Ident Type
Flight plan parsing failed, navigation log unavailable